sensor_id;sensor_type;location;lat;lon;timestamp;P1;durP1;ratioP1;P2;durP2;ratioP2
56927;SDS011;60850;52.502;13.426;2023-07-31T00:01:47;3.03;;;1.10;;
56927;SDS011;60850;52.502;13.426;2023-07-31T00:04:14;3.15;;;1.50;;
56927;SDS011;60850;52.502;13.426;2023-07-31T00:06:41;4.15;;;1.70;;
56927;SDS011;60850;52.502;13.426;2023-07-31T00:09:07;5.00;;;1.98;;
56927;SDS011;60850;52.502;13.426;2023-07-31T00:11:36;4.57;;;1.67;;
56927;SDS011;60850;52.502;13.426;2023-07-31T00:14:05;4.40;;;1.67;;
56927;SDS011;60850;52.502;13.426;2023-07-31T00:16:32;4.53;;;1.73;;
56927;SDS011;60850;52.502;13.426;2023-07-31T00:19:00;5.20;;;1.85;;
56927;SDS011;60850;52.502;13.426;2023-07-31T00:21:27;2.88;;;1.30;;
56927;SDS011;60850;52.502;13.426;2023-07-31T00:23:57;4.90;;;1.40;;
56927;SDS011;60850;52.502;13.426;2023-07-31T00:26:24;4.00;;;1.83;;
56927;SDS011;60850;52.502;13.426;2023-07-31T00:28:52;3.55;;;1.83;;
56927;SDS011;60850;52.502;13.426;2023-07-31T00:31:19;4.32;;;1.65;;
56927;SDS011;60850;52.502;13.426;2023-07-31T00:33:46;5.38;;;2.55;;
56927;SDS011;60850;52.502;13.426;2023-07-31T00:36:13;4.40;;;1.92;;
56927;SDS011;60850;52.502;13.426;2023-07-31T00:38:39;6.13;;;1.75;;
56927;SDS011;60850;52.502;13.426;2023-07-31T00:41:06;8.48;;;2.50;;
56927;SDS011;60850;52.502;13.426;2023-07-31T00:43:33;5.82;;;2.05;;
56927;SDS011;60850;52.502;13.426;2023-07-31T00:46:02;4.18;;;1.75;;
56927;SDS011;60850;52.502;13.426;2023-07-31T00:48:28;3.17;;;2.08;;
56927;SDS011;60850;52.502;13.426;2023-07-31T00:50:56;4.20;;;1.95;;
56927;SDS011;60850;52.502;13.426;2023-07-31T00:53:22;4.97;;;1.60;;
56927;SDS011;60850;52.502;13.426;2023-07-31T00:55:51;3.78;;;2.10;;
56927;SDS011;60850;52.502;13.426;2023-07-31T00:58:18;8.85;;;3.33;;
56927;SDS011;60850;52.502;13.426;2023-07-31T01:00:45;6.35;;;2.80;;
56927;SDS011;60850;52.502;13.426;2023-07-31T01:03:14;3.05;;;1.75;;
56927;SDS011;60850;52.502;13.426;2023-07-31T01:05:43;7.85;;;4.18;;
56927;SDS011;60850;52.502;13.426;2023-07-31T01:08:21;4.63;;;2.03;;
56927;SDS011;60850;52.502;13.426;2023-07-31T01:10:54;6.72;;;2.42;;
56927;SDS011;60850;52.502;13.426;2023-07-31T01:13:25;6.63;;;3.50;;
56927;SDS011;60850;52.502;13.426;2023-07-31T01:15:53;9.57;;;2.60;;
56927;SDS011;60850;52.502;13.426;2023-07-31T01:18:21;4.38;;;2.22;;
56927;SDS011;60850;52.502;13.426;2023-07-31T01:20:50;5.00;;;2.75;;
56927;SDS011;60850;52.502;13.426;2023-07-31T01:23:49;3.40;;;2.20;;
56927;SDS011;60850;52.502;13.426;2023-07-31T01:26:26;4.63;;;2.10;;
56927;SDS011;60850;52.502;13.426;2023-07-31T01:28:56;4.25;;;1.73;;
56927;SDS011;60850;52.502;13.426;2023-07-31T01:31:28;6.45;;;2.67;;
56927;SDS011;60850;52.502;13.426;2023-07-31T01:33:57;6.60;;;2.33;;
56927;SDS011;60850;52.502;13.426;2023-07-31T01:36:27;7.03;;;3.15;;
56927;SDS011;60850;52.502;13.426;2023-07-31T01:38:57;7.43;;;3.60;;
56927;SDS011;60850;52.502;13.426;2023-07-31T01:41:26;7.32;;;3.30;;
56927;SDS011;60850;52.502;13.426;2023-07-31T01:43:53;5.55;;;2.80;;
56927;SDS011;60850;52.502;13.426;2023-07-31T01:46:20;5.28;;;2.42;;
56927;SDS011;60850;52.502;13.426;2023-07-31T01:48:47;4.88;;;2.40;;
56927;SDS011;60850;52.502;13.426;2023-07-31T01:51:14;4.07;;;2.10;;
56927;SDS011;60850;52.502;13.426;2023-07-31T01:53:41;7.63;;;3.25;;
56927;SDS011;60850;52.502;13.426;2023-07-31T01:56:08;4.70;;;2.92;;
56927;SDS011;60850;52.502;13.426;2023-07-31T01:58:36;7.38;;;2.85;;
56927;SDS011;60850;52.502;13.426;2023-07-31T02:01:03;9.40;;;2.80;;
56927;SDS011;60850;52.502;13.426;2023-07-31T02:03:30;7.07;;;2.50;;
56927;SDS011;60850;52.502;13.426;2023-07-31T02:05:57;3.20;;;1.92;;
56927;SDS011;60850;52.502;13.426;2023-07-31T02:08:24;3.65;;;1.80;;
56927;SDS011;60850;52.502;13.426;2023-07-31T02:10:51;4.70;;;2.90;;
56927;SDS011;60850;52.502;13.426;2023-07-31T02:13:18;4.75;;;2.70;;
56927;SDS011;60850;52.502;13.426;2023-07-31T02:15:47;3.42;;;2.15;;
56927;SDS011;60850;52.502;13.426;2023-07-31T02:18:14;5.45;;;2.15;;
56927;SDS011;60850;52.502;13.426;2023-07-31T02:20:41;2.63;;;1.80;;
56927;SDS011;60850;52.502;13.426;2023-07-31T02:23:08;4.80;;;2.40;;
56927;SDS011;60850;52.502;13.426;2023-07-31T02:25:35;4.75;;;2.15;;
56927;SDS011;60850;52.502;13.426;2023-07-31T02:28:02;5.68;;;2.22;;
56927;SDS011;60850;52.502;13.426;2023-07-31T02:30:30;4.50;;;2.33;;
56927;SDS011;60850;52.502;13.426;2023-07-31T02:32:58;2.92;;;2.05;;
56927;SDS011;60850;52.502;13.426;2023-07-31T02:35:25;4.00;;;2.30;;
56927;SDS011;60850;52.502;13.426;2023-07-31T02:37:51;4.70;;;2.60;;
56927;SDS011;60850;52.502;13.426;2023-07-31T02:40:19;8.82;;;4.35;;
56927;SDS011;60850;52.502;13.426;2023-07-31T02:42:47;6.97;;;3.17;;
56927;SDS011;60850;52.502;13.426;2023-07-31T02:45:14;6.90;;;2.70;;
56927;SDS011;60850;52.502;13.426;2023-07-31T02:47:41;6.60;;;2.70;;
56927;SDS011;60850;52.502;13.426;2023-07-31T02:50:10;3.90;;;2.20;;
56927;SDS011;60850;52.502;13.426;2023-07-31T02:52:37;6.20;;;2.72;;
56927;SDS011;60850;52.502;13.426;2023-07-31T02:55:04;4.15;;;2.42;;
56927;SDS011;60850;52.502;13.426;2023-07-31T02:57:33;5.70;;;2.38;;
56927;SDS011;60850;52.502;13.426;2023-07-31T03:00:00;5.90;;;2.88;;
56927;SDS011;60850;52.502;13.426;2023-07-31T03:02:30;4.80;;;2.45;;
56927;SDS011;60850;52.502;13.426;2023-07-31T03:04:58;3.80;;;2.70;;
56927;SDS011;60850;52.502;13.426;2023-07-31T03:07:26;7.70;;;3.03;;
56927;SDS011;60850;52.502;13.426;2023-07-31T03:09:53;7.93;;;3.00;;
56927;SDS011;60850;52.502;13.426;2023-07-31T03:12:19;7.15;;;3.83;;
56927;SDS011;60850;52.502;13.426;2023-07-31T03:14:47;6.45;;;3.25;;
56927;SDS011;60850;52.502;13.426;2023-07-31T03:17:13;5.38;;;3.85;;
56927;SDS011;60850;52.502;13.426;2023-07-31T03:19:41;7.75;;;3.50;;
56927;SDS011;60850;52.502;13.426;2023-07-31T03:22:08;7.28;;;3.90;;
56927;SDS011;60850;52.502;13.426;2023-07-31T03:24:37;5.28;;;3.00;;
56927;SDS011;60850;52.502;13.426;2023-07-31T03:27:04;7.13;;;3.58;;
56927;SDS011;60850;52.502;13.426;2023-07-31T03:29:31;5.95;;;3.22;;
56927;SDS011;60850;52.502;13.426;2023-07-31T03:31:58;7.47;;;4.40;;
56927;SDS011;60850;52.502;13.426;2023-07-31T03:34:26;8.02;;;3.55;;
56927;SDS011;60850;52.502;13.426;2023-07-31T03:36:53;8.68;;;3.40;;
56927;SDS011;60850;52.502;13.426;2023-07-31T03:39:20;7.55;;;3.72;;
56927;SDS011;60850;52.502;13.426;2023-07-31T03:41:48;5.55;;;3.40;;
56927;SDS011;60850;52.502;13.426;2023-07-31T03:44:15;6.65;;;3.40;;
56927;SDS011;60850;52.502;13.426;2023-07-31T03:46:42;6.00;;;3.53;;
56927;SDS011;60850;52.502;13.426;2023-07-31T03:49:09;6.13;;;3.90;;
56927;SDS011;60850;52.502;13.426;2023-07-31T03:51:36;9.57;;;4.07;;
56927;SDS011;60850;52.502;13.426;2023-07-31T03:54:03;8.32;;;3.65;;
56927;SDS011;60850;52.502;13.426;2023-07-31T03:56:30;7.15;;;3.83;;
56927;SDS011;60850;52.502;13.426;2023-07-31T03:58:58;4.57;;;3.15;;
56927;SDS011;60850;52.502;13.426;2023-07-31T04:01:25;5.28;;;4.03;;
56927;SDS011;60850;52.502;13.426;2023-07-31T04:03:53;7.03;;;3.67;;
56927;SDS011;60850;52.502;13.426;2023-07-31T04:06:20;6.60;;;3.90;;
56927;SDS011;60850;52.502;13.426;2023-07-31T04:08:47;8.63;;;3.90;;
56927;SDS011;60850;52.502;13.426;2023-07-31T04:11:13;4.88;;;3.05;;
56927;SDS011;60850;52.502;13.426;2023-07-31T04:13:40;6.63;;;3.28;;
56927;SDS011;60850;52.502;13.426;2023-07-31T04:16:08;6.18;;;3.65;;
56927;SDS011;60850;52.502;13.426;2023-07-31T04:18:35;10.98;;;4.10;;
56927;SDS011;60850;52.502;13.426;2023-07-31T04:21:03;5.03;;;3.58;;
56927;SDS011;60850;52.502;13.426;2023-07-31T04:23:30;4.88;;;3.92;;
56927;SDS011;60850;52.502;13.426;2023-07-31T04:25:57;7.40;;;3.65;;
56927;SDS011;60850;52.502;13.426;2023-07-31T04:28:24;13.30;;;4.65;;
56927;SDS011;60850;52.502;13.426;2023-07-31T04:30:51;6.13;;;3.05;;
56927;SDS011;60850;52.502;13.426;2023-07-31T04:33:20;5.20;;;3.88;;
56927;SDS011;60850;52.502;13.426;2023-07-31T04:35:50;6.25;;;3.67;;
56927;SDS011;60850;52.502;13.426;2023-07-31T04:38:18;7.40;;;3.78;;
56927;SDS011;60850;52.502;13.426;2023-07-31T04:40:45;5.45;;;3.78;;
56927;SDS011;60850;52.502;13.426;2023-07-31T04:43:12;6.85;;;3.63;;
56927;SDS011;60850;52.502;13.426;2023-07-31T04:45:41;7.22;;;4.10;;
56927;SDS011;60850;52.502;13.426;2023-07-31T04:48:09;3.95;;;3.38;;
56927;SDS011;60850;52.502;13.426;2023-07-31T04:50:37;9.00;;;3.85;;
56927;SDS011;60850;52.502;13.426;2023-07-31T04:53:04;4.68;;;3.53;;
56927;SDS011;60850;52.502;13.426;2023-07-31T04:55:31;5.85;;;3.22;;
56927;SDS011;60850;52.502;13.426;2023-07-31T04:57:58;8.48;;;3.92;;
56927;SDS011;60850;52.502;13.426;2023-07-31T05:00:25;5.35;;;3.75;;
56927;SDS011;60850;52.502;13.426;2023-07-31T05:02:52;5.28;;;3.50;;
56927;SDS011;60850;52.502;13.426;2023-07-31T05:05:19;7.57;;;3.42;;
56927;SDS011;60850;52.502;13.426;2023-07-31T05:07:47;4.97;;;3.33;;
56927;SDS011;60850;52.502;13.426;2023-07-31T05:10:14;6.85;;;3.20;;
56927;SDS011;60850;52.502;13.426;2023-07-31T05:12:41;8.98;;;3.55;;
56927;SDS011;60850;52.502;13.426;2023-07-31T05:15:08;7.60;;;3.40;;
56927;SDS011;60850;52.502;13.426;2023-07-31T05:17:39;7.32;;;3.60;;
56927;SDS011;60850;52.502;13.426;2023-07-31T05:20:06;9.75;;;3.80;;
56927;SDS011;60850;52.502;13.426;2023-07-31T05:22:34;7.85;;;3.03;;
56927;SDS011;60850;52.502;13.426;2023-07-31T05:25:03;7.63;;;3.38;;
56927;SDS011;60850;52.502;13.426;2023-07-31T05:27:30;6.40;;;3.10;;
56927;SDS011;60850;52.502;13.426;2023-07-31T05:29:57;4.38;;;2.92;;
56927;SDS011;60850;52.502;13.426;2023-07-31T05:32:25;9.18;;;3.45;;
56927;SDS011;60850;52.502;13.426;2023-07-31T05:34:51;8.38;;;3.60;;
56927;SDS011;60850;52.502;13.426;2023-07-31T05:37:19;16.13;;;4.53;;
56927;SDS011;60850;52.502;13.426;2023-07-31T05:39:46;13.32;;;3.80;;
56927;SDS011;60850;52.502;13.426;2023-07-31T05:42:14;10.77;;;4.38;;
56927;SDS011;60850;52.502;13.426;2023-07-31T05:44:41;10.75;;;5.20;;
56927;SDS011;60850;52.502;13.426;2023-07-31T05:47:09;6.28;;;3.67;;
56927;SDS011;60850;52.502;13.426;2023-07-31T05:49:38;6.75;;;3.00;;
56927;SDS011;60850;52.502;13.426;2023-07-31T05:52:06;4.53;;;2.58;;
56927;SDS011;60850;52.502;13.426;2023-07-31T05:54:33;10.40;;;4.43;;
56927;SDS011;60850;52.502;13.426;2023-07-31T05:57:00;5.90;;;2.67;;
56927;SDS011;60850;52.502;13.426;2023-07-31T05:59:28;5.82;;;3.53;;
56927;SDS011;60850;52.502;13.426;2023-07-31T06:01:58;11.57;;;3.30;;
56927;SDS011;60850;52.502;13.426;2023-07-31T06:04:25;8.25;;;2.58;;
56927;SDS011;60850;52.502;13.426;2023-07-31T06:06:52;9.60;;;3.60;;
56927;SDS011;60850;52.502;13.426;2023-07-31T06:09:19;9.07;;;3.33;;
56927;SDS011;60850;52.502;13.426;2023-07-31T06:11:46;5.65;;;2.70;;
56927;SDS011;60850;52.502;13.426;2023-07-31T06:14:13;6.05;;;2.80;;
56927;SDS011;60850;52.502;13.426;2023-07-31T06:16:41;10.90;;;3.20;;
56927;SDS011;60850;52.502;13.426;2023-07-31T06:19:09;6.93;;;3.00;;
56927;SDS011;60850;52.502;13.426;2023-07-31T06:21:36;12.52;;;3.25;;
56927;SDS011;60850;52.502;13.426;2023-07-31T06:24:03;7.43;;;2.72;;
56927;SDS011;60850;52.502;13.426;2023-07-31T06:26:31;6.90;;;2.83;;
56927;SDS011;60850;52.502;13.426;2023-07-31T06:28:57;7.10;;;3.63;;
56927;SDS011;60850;52.502;13.426;2023-07-31T06:31:24;7.00;;;3.00;;
56927;SDS011;60850;52.502;13.426;2023-07-31T06:33:54;7.18;;;2.58;;
56927;SDS011;60850;52.502;13.426;2023-07-31T06:36:21;5.70;;;2.75;;
56927;SDS011;60850;52.502;13.426;2023-07-31T06:38:50;3.95;;;2.58;;
56927;SDS011;60850;52.502;13.426;2023-07-31T06:41:17;5.82;;;2.20;;
56927;SDS011;60850;52.502;13.426;2023-07-31T06:43:44;6.10;;;2.42;;
56927;SDS011;60850;52.502;13.426;2023-07-31T06:46:11;5.28;;;2.65;;
56927;SDS011;60850;52.502;13.426;2023-07-31T06:48:38;6.03;;;2.38;;
56927;SDS011;60850;52.502;13.426;2023-07-31T06:51:07;4.78;;;2.03;;
56927;SDS011;60850;52.502;13.426;2023-07-31T06:53:33;4.63;;;1.90;;
56927;SDS011;60850;52.502;13.426;2023-07-31T06:56:00;6.07;;;2.35;;
56927;SDS011;60850;52.502;13.426;2023-07-31T06:58:29;8.45;;;2.90;;
56927;SDS011;60850;52.502;13.426;2023-07-31T07:00:56;7.57;;;2.15;;
56927;SDS011;60850;52.502;13.426;2023-07-31T07:03:23;8.02;;;2.65;;
56927;SDS011;60850;52.502;13.426;2023-07-31T07:05:50;3.88;;;2.17;;
56927;SDS011;60850;52.502;13.426;2023-07-31T07:08:18;5.57;;;2.53;;
56927;SDS011;60850;52.502;13.426;2023-07-31T07:10:46;8.65;;;2.53;;
56927;SDS011;60850;52.502;13.426;2023-07-31T07:13:13;4.95;;;2.22;;
56927;SDS011;60850;52.502;13.426;2023-07-31T07:15:40;4.65;;;2.10;;
56927;SDS011;60850;52.502;13.426;2023-07-31T07:18:07;5.82;;;2.15;;
56927;SDS011;60850;52.502;13.426;2023-07-31T07:20:36;4.07;;;2.40;;
56927;SDS011;60850;52.502;13.426;2023-07-31T07:23:03;5.25;;;2.00;;
56927;SDS011;60850;52.502;13.426;2023-07-31T07:25:31;6.95;;;2.38;;
56927;SDS011;60850;52.502;13.426;2023-07-31T07:27:58;5.97;;;2.10;;
56927;SDS011;60850;52.502;13.426;2023-07-31T07:30:25;5.60;;;2.42;;
56927;SDS011;60850;52.502;13.426;2023-07-31T07:32:52;4.97;;;2.03;;
56927;SDS011;60850;52.502;13.426;2023-07-31T07:35:18;5.60;;;2.10;;
56927;SDS011;60850;52.502;13.426;2023-07-31T07:37:47;4.82;;;1.88;;
56927;SDS011;60850;52.502;13.426;2023-07-31T07:40:15;5.05;;;2.03;;
56927;SDS011;60850;52.502;13.426;2023-07-31T07:42:43;4.82;;;2.05;;
56927;SDS011;60850;52.502;13.426;2023-07-31T07:45:10;5.78;;;1.85;;
56927;SDS011;60850;52.502;13.426;2023-07-31T07:47:37;4.45;;;2.08;;
56927;SDS011;60850;52.502;13.426;2023-07-31T07:50:05;4.47;;;2.38;;
56927;SDS011;60850;52.502;13.426;2023-07-31T07:52:32;4.57;;;2.40;;
56927;SDS011;60850;52.502;13.426;2023-07-31T07:54:59;4.10;;;2.35;;
56927;SDS011;60850;52.502;13.426;2023-07-31T07:57:26;4.93;;;2.67;;
56927;SDS011;60850;52.502;13.426;2023-07-31T07:59:55;4.55;;;2.05;;
56927;SDS011;60850;52.502;13.426;2023-07-31T08:02:22;7.22;;;2.80;;
56927;SDS011;60850;52.502;13.426;2023-07-31T08:04:49;4.95;;;3.15;;
56927;SDS011;60850;52.502;13.426;2023-07-31T08:07:16;6.50;;;2.55;;
56927;SDS011;60850;52.502;13.426;2023-07-31T08:09:43;5.20;;;2.67;;
56927;SDS011;60850;52.502;13.426;2023-07-31T08:12:09;7.15;;;3.50;;
56927;SDS011;60850;52.502;13.426;2023-07-31T08:14:36;5.55;;;2.35;;
56927;SDS011;60850;52.502;13.426;2023-07-31T08:17:05;6.28;;;3.53;;
56927;SDS011;60850;52.502;13.426;2023-07-31T08:19:32;3.55;;;1.92;;
56927;SDS011;60850;52.502;13.426;2023-07-31T08:21:58;3.78;;;2.33;;
56927;SDS011;60850;52.502;13.426;2023-07-31T08:24:25;4.57;;;2.05;;
56927;SDS011;60850;52.502;13.426;2023-07-31T08:26:52;4.65;;;2.72;;
56927;SDS011;60850;52.502;13.426;2023-07-31T08:29:19;2.97;;;1.90;;
56927;SDS011;60850;52.502;13.426;2023-07-31T08:31:46;4.07;;;2.05;;
56927;SDS011;60850;52.502;13.426;2023-07-31T08:34:14;4.32;;;2.47;;
56927;SDS011;60850;52.502;13.426;2023-07-31T08:36:41;3.75;;;2.00;;
56927;SDS011;60850;52.502;13.426;2023-07-31T08:39:08;3.88;;;2.45;;
56927;SDS011;60850;52.502;13.426;2023-07-31T08:41:37;3.70;;;2.03;;
56927;SDS011;60850;52.502;13.426;2023-07-31T08:44:04;2.78;;;1.80;;
56927;SDS011;60850;52.502;13.426;2023-07-31T08:46:32;2.38;;;1.65;;
56927;SDS011;60850;52.502;13.426;2023-07-31T08:48:59;3.33;;;2.17;;
56927;SDS011;60850;52.502;13.426;2023-07-31T08:51:31;4.50;;;2.17;;
56927;SDS011;60850;52.502;13.426;2023-07-31T08:54:00;4.43;;;1.70;;
56927;SDS011;60850;52.502;13.426;2023-07-31T08:56:29;3.08;;;1.67;;
56927;SDS011;60850;52.502;13.426;2023-07-31T08:58:57;3.03;;;1.80;;
56927;SDS011;60850;52.502;13.426;2023-07-31T09:01:26;3.95;;;1.63;;
56927;SDS011;60850;52.502;13.426;2023-07-31T09:03:56;2.85;;;2.05;;
56927;SDS011;60850;52.502;13.426;2023-07-31T09:06:26;4.20;;;1.92;;
56927;SDS011;60850;52.502;13.426;2023-07-31T09:08:56;2.80;;;1.65;;
56927;SDS011;60850;52.502;13.426;2023-07-31T09:11:23;2.75;;;1.67;;
56927;SDS011;60850;52.502;13.426;2023-07-31T09:13:52;3.47;;;1.70;;
56927;SDS011;60850;52.502;13.426;2023-07-31T09:16:26;2.85;;;2.17;;
56927;SDS011;60850;52.502;13.426;2023-07-31T09:18:56;3.47;;;1.98;;
56927;SDS011;60850;52.502;13.426;2023-07-31T09:21:24;3.38;;;1.73;;
56927;SDS011;60850;52.502;13.426;2023-07-31T09:23:53;3.65;;;1.60;;
56927;SDS011;60850;52.502;13.426;2023-07-31T09:26:31;3.13;;;1.20;;
56927;SDS011;60850;52.502;13.426;2023-07-31T09:28:58;3.47;;;1.40;;
56927;SDS011;60850;52.502;13.426;2023-07-31T09:31:32;2.25;;;1.20;;
56927;SDS011;60850;52.502;13.426;2023-07-31T09:34:04;3.75;;;1.27;;
56927;SDS011;60850;52.502;13.426;2023-07-31T09:36:31;3.50;;;1.60;;
56927;SDS011;60850;52.502;13.426;2023-07-31T09:39:01;3.15;;;1.33;;
56927;SDS011;60850;52.502;13.426;2023-07-31T09:41:30;3.05;;;1.10;;
56927;SDS011;60850;52.502;13.426;2023-07-31T09:43:57;1.73;;;1.27;;
56927;SDS011;60850;52.502;13.426;2023-07-31T09:46:26;1.90;;;1.00;;
56927;SDS011;60850;52.502;13.426;2023-07-31T09:49:02;2.65;;;0.90;;
56927;SDS011;60850;52.502;13.426;2023-07-31T09:51:31;1.25;;;0.90;;
56927;SDS011;60850;52.502;13.426;2023-07-31T09:54:12;1.20;;;0.80;;
56927;SDS011;60850;52.502;13.426;2023-07-31T09:56:42;2.03;;;1.20;;
56927;SDS011;60850;52.502;13.426;2023-07-31T09:59:13;3.10;;;1.20;;
56927;SDS011;60850;52.502;13.426;2023-07-31T10:01:41;1.95;;;1.00;;
56927;SDS011;60850;52.502;13.426;2023-07-31T10:04:10;2.42;;;1.35;;
56927;SDS011;60850;52.502;13.426;2023-07-31T10:06:37;2.28;;;1.00;;
56927;SDS011;60850;52.502;13.426;2023-07-31T10:09:05;3.15;;;1.40;;
56927;SDS011;60850;52.502;13.426;2023-07-31T10:11:36;2.58;;;1.40;;
56927;SDS011;60850;52.502;13.426;2023-07-31T10:14:06;2.45;;;1.58;;
56927;SDS011;60850;52.502;13.426;2023-07-31T10:16:34;4.90;;;1.70;;
56927;SDS011;60850;52.502;13.426;2023-07-31T10:19:02;2.50;;;1.75;;
56927;SDS011;60850;52.502;13.426;2023-07-31T10:21:30;4.07;;;2.17;;
56927;SDS011;60850;52.502;13.426;2023-07-31T10:24:01;4.10;;;2.10;;
56927;SDS011;60850;52.502;13.426;2023-07-31T10:26:29;6.22;;;2.63;;
56927;SDS011;60850;52.502;13.426;2023-07-31T10:28:58;4.57;;;2.35;;
56927;SDS011;60850;52.502;13.426;2023-07-31T10:31:26;3.85;;;2.47;;
56927;SDS011;60850;52.502;13.426;2023-07-31T10:33:55;5.53;;;2.92;;
56927;SDS011;60850;52.502;13.426;2023-07-31T10:36:23;4.70;;;2.72;;
56927;SDS011;60850;52.502;13.426;2023-07-31T10:38:51;6.07;;;2.88;;
56927;SDS011;60850;52.502;13.426;2023-07-31T10:41:17;7.10;;;2.92;;
56927;SDS011;60850;52.502;13.426;2023-07-31T10:43:47;7.88;;;3.10;;
56927;SDS011;60850;52.502;13.426;2023-07-31T10:46:14;4.93;;;2.92;;
56927;SDS011;60850;52.502;13.426;2023-07-31T10:48:43;7.32;;;2.90;;
56927;SDS011;60850;52.502;13.426;2023-07-31T10:51:10;6.40;;;2.78;;
56927;SDS011;60850;52.502;13.426;2023-07-31T10:53:42;4.65;;;2.60;;
56927;SDS011;60850;52.502;13.426;2023-07-31T10:56:09;5.00;;;2.35;;
56927;SDS011;60850;52.502;13.426;2023-07-31T10:58:38;6.53;;;2.60;;
56927;SDS011;60850;52.502;13.426;2023-07-31T11:01:05;7.28;;;2.95;;
56927;SDS011;60850;52.502;13.426;2023-07-31T11:03:44;4.80;;;2.72;;
56927;SDS011;60850;52.502;13.426;2023-07-31T11:06:12;5.35;;;2.80;;
56927;SDS011;60850;52.502;13.426;2023-07-31T11:08:43;4.95;;;2.70;;
56927;SDS011;60850;52.502;13.426;2023-07-31T11:11:12;7.30;;;2.83;;
56927;SDS011;60850;52.502;13.426;2023-07-31T11:13:44;4.15;;;2.38;;
56927;SDS011;60850;52.502;13.426;2023-07-31T11:18:44;6.20;;;3.10;;
56927;SDS011;60850;52.502;13.426;2023-07-31T11:21:16;3.30;;;2.50;;
56927;SDS011;60850;52.502;13.426;2023-07-31T11:23:45;5.95;;;2.50;;
56927;SDS011;60850;52.502;13.426;2023-07-31T11:26:12;7.65;;;2.63;;
56927;SDS011;60850;52.502;13.426;2023-07-31T11:28:40;3.67;;;2.17;;
56927;SDS011;60850;52.502;13.426;2023-07-31T11:31:08;5.32;;;2.13;;
56927;SDS011;60850;52.502;13.426;2023-07-31T11:33:39;4.40;;;2.25;;
56927;SDS011;60850;52.502;13.426;2023-07-31T11:36:10;3.38;;;2.00;;
56927;SDS011;60850;52.502;13.426;2023-07-31T11:38:41;4.97;;;2.78;;
56927;SDS011;60850;52.502;13.426;2023-07-31T11:41:08;5.97;;;2.50;;
56927;SDS011;60850;52.502;13.426;2023-07-31T11:43:35;6.95;;;2.60;;
56927;SDS011;60850;52.502;13.426;2023-07-31T11:46:05;7.97;;;4.35;;
56927;SDS011;60850;52.502;13.426;2023-07-31T11:48:33;7.22;;;2.65;;
56927;SDS011;60850;52.502;13.426;2023-07-31T11:51:02;10.93;;;3.58;;
56927;SDS011;60850;52.502;13.426;2023-07-31T11:53:33;4.50;;;2.20;;
56927;SDS011;60850;52.502;13.426;2023-07-31T11:56:04;5.03;;;2.90;;
56927;SDS011;60850;52.502;13.426;2023-07-31T11:58:34;7.93;;;2.92;;
56927;SDS011;60850;52.502;13.426;2023-07-31T12:01:02;5.25;;;2.65;;
56927;SDS011;60850;52.502;13.426;2023-07-31T12:03:30;5.35;;;2.75;;
56927;SDS011;60850;52.502;13.426;2023-07-31T12:05:58;5.70;;;3.03;;
56927;SDS011;60850;52.502;13.426;2023-07-31T12:08:25;4.53;;;2.33;;
56927;SDS011;60850;52.502;13.426;2023-07-31T12:11:01;4.97;;;3.08;;
56927;SDS011;60850;52.502;13.426;2023-07-31T12:13:30;5.43;;;2.95;;
56927;SDS011;60850;52.502;13.426;2023-07-31T12:15:58;6.72;;;3.38;;
56927;SDS011;60850;52.502;13.426;2023-07-31T12:18:28;4.18;;;2.83;;
56927;SDS011;60850;52.502;13.426;2023-07-31T12:21:06;4.47;;;2.58;;
56927;SDS011;60850;52.502;13.426;2023-07-31T12:23:37;4.88;;;2.47;;
56927;SDS011;60850;52.502;13.426;2023-07-31T12:26:06;6.15;;;2.45;;
56927;SDS011;60850;52.502;13.426;2023-07-31T12:28:37;4.28;;;2.30;;
56927;SDS011;60850;52.502;13.426;2023-07-31T12:31:06;4.72;;;2.13;;
56927;SDS011;60850;52.502;13.426;2023-07-31T12:33:35;5.38;;;2.10;;
56927;SDS011;60850;52.502;13.426;2023-07-31T12:36:07;4.97;;;2.38;;
56927;SDS011;60850;52.502;13.426;2023-07-31T12:38:35;4.22;;;2.55;;
56927;SDS011;60850;52.502;13.426;2023-07-31T12:41:02;4.18;;;2.00;;
56927;SDS011;60850;52.502;13.426;2023-07-31T12:43:31;5.25;;;2.67;;
56927;SDS011;60850;52.502;13.426;2023-07-31T12:45:58;6.20;;;2.85;;
56927;SDS011;60850;52.502;13.426;2023-07-31T12:48:25;6.63;;;3.13;;
56927;SDS011;60850;52.502;13.426;2023-07-31T12:50:52;4.63;;;2.22;;
56927;SDS011;60850;52.502;13.426;2023-07-31T12:53:19;3.53;;;2.10;;
56927;SDS011;60850;52.502;13.426;2023-07-31T12:55:46;6.05;;;3.63;;
56927;SDS011;60850;52.502;13.426;2023-07-31T12:58:16;4.00;;;1.85;;
56927;SDS011;60850;52.502;13.426;2023-07-31T13:00:44;5.45;;;1.83;;
56927;SDS011;60850;52.502;13.426;2023-07-31T13:03:12;6.20;;;1.73;;
56927;SDS011;60850;52.502;13.426;2023-07-31T13:05:45;10.38;;;5.07;;
56927;SDS011;60850;52.502;13.426;2023-07-31T13:08:12;4.38;;;1.90;;
56927;SDS011;60850;52.502;13.426;2023-07-31T13:10:41;4.70;;;2.35;;
56927;SDS011;60850;52.502;13.426;2023-07-31T13:13:10;5.03;;;1.98;;
56927;SDS011;60850;52.502;13.426;2023-07-31T13:15:39;4.45;;;2.08;;
56927;SDS011;60850;52.502;13.426;2023-07-31T13:18:14;3.33;;;2.05;;
56927;SDS011;60850;52.502;13.426;2023-07-31T13:20:45;6.83;;;2.20;;
56927;SDS011;60850;52.502;13.426;2023-07-31T13:23:16;4.22;;;1.80;;
56927;SDS011;60850;52.502;13.426;2023-07-31T13:25:43;5.25;;;2.03;;
56927;SDS011;60850;52.502;13.426;2023-07-31T13:28:11;5.25;;;2.13;;
56927;SDS011;60850;52.502;13.426;2023-07-31T13:30:45;3.60;;;2.10;;
56927;SDS011;60850;52.502;13.426;2023-07-31T13:33:14;3.20;;;1.73;;
56927;SDS011;60850;52.502;13.426;2023-07-31T13:35:41;4.40;;;2.70;;
56927;SDS011;60850;52.502;13.426;2023-07-31T13:38:08;5.18;;;2.30;;
56927;SDS011;60850;52.502;13.426;2023-07-31T13:40:37;5.15;;;2.25;;
56927;SDS011;60850;52.502;13.426;2023-07-31T13:43:04;4.95;;;2.05;;
56927;SDS011;60850;52.502;13.426;2023-07-31T13:45:31;5.70;;;2.40;;
56927;SDS011;60850;52.502;13.426;2023-07-31T13:47:58;5.00;;;2.00;;
56927;SDS011;60850;52.502;13.426;2023-07-31T13:50:29;6.28;;;2.90;;
56927;SDS011;60850;52.502;13.426;2023-07-31T13:53:01;6.10;;;2.67;;
56927;SDS011;60850;52.502;13.426;2023-07-31T13:55:29;5.45;;;2.63;;
56927;SDS011;60850;52.502;13.426;2023-07-31T13:57:56;4.78;;;2.50;;
56927;SDS011;60850;52.502;13.426;2023-07-31T14:00:23;4.75;;;2.33;;
56927;SDS011;60850;52.502;13.426;2023-07-31T14:02:51;6.03;;;2.17;;
56927;SDS011;60850;52.502;13.426;2023-07-31T14:05:19;4.75;;;2.65;;
56927;SDS011;60850;52.502;13.426;2023-07-31T14:07:47;6.70;;;2.83;;
56927;SDS011;60850;52.502;13.426;2023-07-31T14:10:14;6.10;;;2.50;;
56927;SDS011;60850;52.502;13.426;2023-07-31T14:12:42;4.95;;;2.50;;
56927;SDS011;60850;52.502;13.426;2023-07-31T14:15:15;4.65;;;3.10;;
56927;SDS011;60850;52.502;13.426;2023-07-31T14:17:42;5.85;;;2.85;;
56927;SDS011;60850;52.502;13.426;2023-07-31T14:20:14;8.55;;;2.72;;
56927;SDS011;60850;52.502;13.426;2023-07-31T14:22:50;7.32;;;2.80;;
56927;SDS011;60850;52.502;13.426;2023-07-31T14:25:18;5.05;;;2.40;;
56927;SDS011;60850;52.502;13.426;2023-07-31T14:27:47;7.35;;;2.72;;
56927;SDS011;60850;52.502;13.426;2023-07-31T14:30:14;4.68;;;2.28;;
56927;SDS011;60850;52.502;13.426;2023-07-31T14:32:41;4.93;;;2.45;;
56927;SDS011;60850;52.502;13.426;2023-07-31T14:35:14;8.18;;;2.83;;
56927;SDS011;60850;52.502;13.426;2023-07-31T14:37:44;3.28;;;2.03;;
56927;SDS011;60850;52.502;13.426;2023-07-31T14:40:16;4.38;;;2.55;;
56927;SDS011;60850;52.502;13.426;2023-07-31T14:42:46;4.95;;;2.30;;